Retour à l'actu

LFPG

METAR

LFPG 260900Z 22008KT CAVOK 02/M02 Q1022 NOSIG

TAF

LFPG 260500Z
  • | 2606/2712 24008KT CAVOK TX09/2712Z TNM01/2606Z
  • | BECMG 2616/2618 19010KT
  • | PROB30 TEMPO 2621/2623 4000 -RASN
  • | BECMG 2700/2702 BKN008
  • | BECMG 2703/2705 BKN003
  • | PROB40 TEMPO 2706/2712 2000 -DZ BR BKN002
  • | BECMG 2706/2709 25008KT